sensor_id;sensor_type;location;lat;lon;timestamp;P1;durP1;ratioP1;P2;durP2;ratioP2
25155;SDS011;21913;52.456;13.634;2023-05-10T00:03:56;2.63;;;2.30;;
25155;SDS011;21913;52.456;13.634;2023-05-10T00:08:57;2.50;;;2.30;;
25155;SDS011;21913;52.456;13.634;2023-05-10T00:13:59;2.67;;;2.40;;
25155;SDS011;21913;52.456;13.634;2023-05-10T00:19:00;3.03;;;2.25;;
25155;SDS011;21913;52.456;13.634;2023-05-10T00:24:02;2.90;;;2.38;;
25155;SDS011;21913;52.456;13.634;2023-05-10T00:29:03;3.00;;;2.42;;
25155;SDS011;21913;52.456;13.634;2023-05-10T00:34:05;3.08;;;2.40;;
25155;SDS011;21913;52.456;13.634;2023-05-10T00:39:06;3.00;;;2.38;;
25155;SDS011;21913;52.456;13.634;2023-05-10T00:44:08;2.47;;;2.22;;
25155;SDS011;21913;52.456;13.634;2023-05-10T00:49:10;3.45;;;2.60;;
25155;SDS011;21913;52.456;13.634;2023-05-10T00:54:12;3.08;;;2.20;;
25155;SDS011;21913;52.456;13.634;2023-05-10T00:59:16;3.35;;;2.53;;
25155;SDS011;21913;52.456;13.634;2023-05-10T01:04:17;3.78;;;2.30;;
25155;SDS011;21913;52.456;13.634;2023-05-10T01:15:35;3.25;;;2.40;;
25155;SDS011;21913;52.456;13.634;2023-05-10T01:20:39;2.67;;;2.30;;
25155;SDS011;21913;52.456;13.634;2023-05-10T01:31:03;2.50;;;2.05;;
25155;SDS011;21913;52.456;13.634;2023-05-10T01:36:11;3.33;;;2.30;;
25155;SDS011;21913;52.456;13.634;2023-05-10T01:46:37;3.22;;;2.08;;
25155;SDS011;21913;52.456;13.634;2023-05-10T01:51:45;3.22;;;2.50;;
25155;SDS011;21913;52.456;13.634;2023-05-10T01:56:55;2.70;;;2.03;;
25155;SDS011;21913;52.456;13.634;2023-05-10T02:02:00;2.40;;;2.05;;
25155;SDS011;21913;52.456;13.634;2023-05-10T02:07:03;2.72;;;2.25;;
25155;SDS011;21913;52.456;13.634;2023-05-10T02:12:06;3.83;;;2.13;;
25155;SDS011;21913;52.456;13.634;2023-05-10T02:17:09;3.10;;;2.05;;
25155;SDS011;21913;52.456;13.634;2023-05-10T02:22:11;2.50;;;2.30;;
25155;SDS011;21913;52.456;13.634;2023-05-10T02:27:13;3.15;;;2.15;;
25155;SDS011;21913;52.456;13.634;2023-05-10T02:32:16;2.53;;;2.22;;
25155;SDS011;21913;52.456;13.634;2023-05-10T02:37:19;3.58;;;2.20;;
25155;SDS011;21913;52.456;13.634;2023-05-10T02:42:27;2.53;;;2.20;;
25155;SDS011;21913;52.456;13.634;2023-05-10T02:47:30;2.65;;;2.10;;
25155;SDS011;21913;52.456;13.634;2023-05-10T02:52:37;2.20;;;2.00;;
25155;SDS011;21913;52.456;13.634;2023-05-10T02:57:43;2.63;;;2.10;;
25155;SDS011;21913;52.456;13.634;2023-05-10T03:02:52;2.60;;;2.10;;
25155;SDS011;21913;52.456;13.634;2023-05-10T03:07:54;2.30;;;1.90;;
25155;SDS011;21913;52.456;13.634;2023-05-10T03:18:48;2.15;;;1.95;;
25155;SDS011;21913;52.456;13.634;2023-05-10T03:23:58;2.50;;;2.10;;
25155;SDS011;21913;52.456;13.634;2023-05-10T03:29:04;2.33;;;2.00;;
25155;SDS011;21913;52.456;13.634;2023-05-10T03:34:06;2.10;;;1.90;;
25155;SDS011;21913;52.456;13.634;2023-05-10T03:39:08;2.10;;;1.80;;
25155;SDS011;21913;52.456;13.634;2023-05-10T03:44:11;2.38;;;2.05;;
25155;SDS011;21913;52.456;13.634;2023-05-10T03:49:13;1.90;;;1.70;;
25155;SDS011;21913;52.456;13.634;2023-05-10T03:54:14;2.33;;;1.80;;
25155;SDS011;21913;52.456;13.634;2023-05-10T03:59:16;1.90;;;1.65;;
25155;SDS011;21913;52.456;13.634;2023-05-10T04:04:17;2.25;;;1.75;;
25155;SDS011;21913;52.456;13.634;2023-05-10T04:09:22;2.88;;;1.75;;
25155;SDS011;21913;52.456;13.634;2023-05-10T04:14:24;3.28;;;1.90;;
25155;SDS011;21913;52.456;13.634;2023-05-10T04:19:28;3.05;;;1.60;;
25155;SDS011;21913;52.456;13.634;2023-05-10T04:24:30;2.47;;;1.80;;
25155;SDS011;21913;52.456;13.634;2023-05-10T04:29:32;1.58;;;1.48;;
25155;SDS011;21913;52.456;13.634;2023-05-10T04:34:33;2.42;;;1.70;;
25155;SDS011;21913;52.456;13.634;2023-05-10T04:39:35;1.90;;;1.70;;
25155;SDS011;21913;52.456;13.634;2023-05-10T04:44:36;2.47;;;1.73;;
25155;SDS011;21913;52.456;13.634;2023-05-10T04:49:38;2.00;;;1.70;;
25155;SDS011;21913;52.456;13.634;2023-05-10T04:54:39;2.03;;;1.60;;
25155;SDS011;21913;52.456;13.634;2023-05-10T04:59:41;1.70;;;1.60;;
25155;SDS011;21913;52.456;13.634;2023-05-10T05:04:43;1.83;;;1.50;;
25155;SDS011;21913;52.456;13.634;2023-05-10T05:09:45;2.58;;;1.80;;
25155;SDS011;21913;52.456;13.634;2023-05-10T05:14:46;2.00;;;1.52;;
25155;SDS011;21913;52.456;13.634;2023-05-10T05:19:48;2.22;;;1.58;;
25155;SDS011;21913;52.456;13.634;2023-05-10T05:24:49;2.10;;;1.58;;
25155;SDS011;21913;52.456;13.634;2023-05-10T05:29:57;2.22;;;1.77;;
25155;SDS011;21913;52.456;13.634;2023-05-10T05:34:59;2.05;;;1.60;;
25155;SDS011;21913;52.456;13.634;2023-05-10T05:40:00;2.60;;;1.45;;
25155;SDS011;21913;52.456;13.634;2023-05-10T05:45:02;1.65;;;1.50;;
25155;SDS011;21913;52.456;13.634;2023-05-10T05:50:04;2.10;;;1.50;;
25155;SDS011;21913;52.456;13.634;2023-05-10T05:55:06;1.75;;;1.45;;
25155;SDS011;21913;52.456;13.634;2023-05-10T06:00:08;2.00;;;1.50;;
25155;SDS011;21913;52.456;13.634;2023-05-10T06:05:15;2.35;;;1.48;;
25155;SDS011;21913;52.456;13.634;2023-05-10T06:10:17;2.15;;;1.60;;
25155;SDS011;21913;52.456;13.634;2023-05-10T06:15:18;1.83;;;1.50;;
25155;SDS011;21913;52.456;13.634;2023-05-10T06:20:20;2.10;;;1.58;;
25155;SDS011;21913;52.456;13.634;2023-05-10T06:25:24;1.65;;;1.40;;
25155;SDS011;21913;52.456;13.634;2023-05-10T06:30:26;2.22;;;1.50;;
25155;SDS011;21913;52.456;13.634;2023-05-10T06:35:27;1.88;;;1.50;;
25155;SDS011;21913;52.456;13.634;2023-05-10T06:40:29;2.05;;;1.35;;
25155;SDS011;21913;52.456;13.634;2023-05-10T06:45:31;1.90;;;1.50;;
25155;SDS011;21913;52.456;13.634;2023-05-10T06:50:32;2.35;;;1.50;;
25155;SDS011;21913;52.456;13.634;2023-05-10T06:55:34;1.80;;;1.55;;
25155;SDS011;21913;52.456;13.634;2023-05-10T07:00:36;1.95;;;1.50;;
25155;SDS011;21913;52.456;13.634;2023-05-10T07:05:37;1.45;;;1.33;;
25155;SDS011;21913;52.456;13.634;2023-05-10T07:10:39;2.22;;;1.60;;
25155;SDS011;21913;52.456;13.634;2023-05-10T07:15:40;1.80;;;1.50;;
25155;SDS011;21913;52.456;13.634;2023-05-10T07:20:42;2.08;;;1.52;;
25155;SDS011;21913;52.456;13.634;2023-05-10T07:25:47;2.22;;;1.60;;
25155;SDS011;21913;52.456;13.634;2023-05-10T07:30:49;1.80;;;1.52;;
25155;SDS011;21913;52.456;13.634;2023-05-10T07:35:50;3.92;;;1.70;;
25155;SDS011;21913;52.456;13.634;2023-05-10T07:40:52;2.30;;;1.63;;
25155;SDS011;21913;52.456;13.634;2023-05-10T07:45:53;2.55;;;1.92;;
25155;SDS011;21913;52.456;13.634;2023-05-10T07:50:56;2.22;;;1.65;;
25155;SDS011;21913;52.456;13.634;2023-05-10T07:55:58;2.33;;;1.70;;
25155;SDS011;21913;52.456;13.634;2023-05-10T08:00:59;2.22;;;1.77;;
25155;SDS011;21913;52.456;13.634;2023-05-10T08:06:01;2.42;;;1.92;;
25155;SDS011;21913;52.456;13.634;2023-05-10T08:11:03;2.28;;;1.80;;
25155;SDS011;21913;52.456;13.634;2023-05-10T08:16:05;2.70;;;2.00;;
25155;SDS011;21913;52.456;13.634;2023-05-10T08:21:06;2.47;;;2.10;;
25155;SDS011;21913;52.456;13.634;2023-05-10T08:26:08;3.75;;;2.50;;
25155;SDS011;21913;52.456;13.634;2023-05-10T08:31:09;3.42;;;2.20;;
25155;SDS011;21913;52.456;13.634;2023-05-10T08:36:11;3.65;;;2.42;;
25155;SDS011;21913;52.456;13.634;2023-05-10T08:41:12;4.10;;;2.28;;
25155;SDS011;21913;52.456;13.634;2023-05-10T08:46:16;3.42;;;2.45;;
25155;SDS011;21913;52.456;13.634;2023-05-10T08:51:20;3.15;;;2.33;;
25155;SDS011;21913;52.456;13.634;2023-05-10T08:56:24;3.55;;;2.60;;
25155;SDS011;21913;52.456;13.634;2023-05-10T09:01:25;2.88;;;2.30;;
25155;SDS011;21913;52.456;13.634;2023-05-10T09:06:28;2.95;;;2.47;;
25155;SDS011;21913;52.456;13.634;2023-05-10T09:11:30;3.20;;;2.50;;
25155;SDS011;21913;52.456;13.634;2023-05-10T09:16:31;3.15;;;2.60;;
25155;SDS011;21913;52.456;13.634;2023-05-10T09:21:34;3.47;;;2.40;;
25155;SDS011;21913;52.456;13.634;2023-05-10T09:26:45;6.40;;;4.50;;
25155;SDS011;21913;52.456;13.634;2023-05-10T09:36:57;13.25;;;8.35;;
25155;SDS011;21913;52.456;13.634;2023-05-10T09:42:01;17.73;;;10.43;;
25155;SDS011;21913;52.456;13.634;2023-05-10T09:47:03;36.50;;;18.50;;
25155;SDS011;21913;52.456;13.634;2023-05-10T09:52:06;35.60;;;19.33;;
25155;SDS011;21913;52.456;13.634;2023-05-10T09:57:10;38.67;;;21.63;;
25155;SDS011;21913;52.456;13.634;2023-05-10T10:02:21;34.10;;;20.00;;
25155;SDS011;21913;52.456;13.634;2023-05-10T10:07:29;36.25;;;21.85;;
25155;SDS011;21913;52.456;13.634;2023-05-10T10:12:31;33.85;;;22.13;;
25155;SDS011;21913;52.456;13.634;2023-05-10T10:17:33;35.53;;;21.80;;
25155;SDS011;21913;52.456;13.634;2023-05-10T10:22:37;33.78;;;20.63;;
25155;SDS011;21913;52.456;13.634;2023-05-10T10:27:42;29.20;;;18.55;;
25155;SDS011;21913;52.456;13.634;2023-05-10T10:38:20;25.60;;;17.02;;
25155;SDS011;21913;52.456;13.634;2023-05-10T10:48:28;23.48;;;15.02;;
25155;SDS011;21913;52.456;13.634;2023-05-10T10:53:29;25.00;;;15.32;;
25155;SDS011;21913;52.456;13.634;2023-05-10T10:58:31;19.58;;;13.60;;
25155;SDS011;21913;52.456;13.634;2023-05-10T11:03:32;19.00;;;12.65;;
25155;SDS011;21913;52.456;13.634;2023-05-10T11:08:39;20.90;;;13.18;;
25155;SDS011;21913;52.456;13.634;2023-05-10T11:13:44;17.40;;;11.93;;
25155;SDS011;21913;52.456;13.634;2023-05-10T11:19:01;16.88;;;11.05;;
25155;SDS011;21913;52.456;13.634;2023-05-10T11:24:09;17.85;;;11.02;;
25155;SDS011;21913;52.456;13.634;2023-05-10T11:29:15;14.75;;;10.25;;
25155;SDS011;21913;52.456;13.634;2023-05-10T11:34:24;15.30;;;10.32;;
25155;SDS011;21913;52.456;13.634;2023-05-10T11:39:30;16.75;;;10.13;;
25155;SDS011;21913;52.456;13.634;2023-05-10T11:44:32;12.63;;;9.73;;
25155;SDS011;21913;52.456;13.634;2023-05-10T11:49:34;13.55;;;9.60;;
25155;SDS011;21913;52.456;13.634;2023-05-10T11:54:36;13.65;;;8.68;;
25155;SDS011;21913;52.456;13.634;2023-05-10T11:59:37;13.95;;;9.23;;
25155;SDS011;21913;52.456;13.634;2023-05-10T12:04:39;11.95;;;8.63;;
25155;SDS011;21913;52.456;13.634;2023-05-10T12:09:44;11.82;;;8.30;;
25155;SDS011;21913;52.456;13.634;2023-05-10T12:14:48;12.65;;;8.63;;
25155;SDS011;21913;52.456;13.634;2023-05-10T12:19:51;12.57;;;8.18;;
25155;SDS011;21913;52.456;13.634;2023-05-10T12:24:53;11.52;;;8.43;;
25155;SDS011;21913;52.456;13.634;2023-05-10T12:29:54;10.25;;;7.65;;
25155;SDS011;21913;52.456;13.634;2023-05-10T12:34:56;11.20;;;8.20;;
25155;SDS011;21913;52.456;13.634;2023-05-10T12:39:58;10.30;;;7.78;;
25155;SDS011;21913;52.456;13.634;2023-05-10T12:45:00;11.48;;;7.97;;
25155;SDS011;21913;52.456;13.634;2023-05-10T12:50:01;13.10;;;7.72;;
25155;SDS011;21913;52.456;13.634;2023-05-10T12:55:04;9.68;;;7.43;;
25155;SDS011;21913;52.456;13.634;2023-05-10T13:00:05;10.27;;;7.93;;
25155;SDS011;21913;52.456;13.634;2023-05-10T13:05:07;10.30;;;7.55;;
25155;SDS011;21913;52.456;13.634;2023-05-10T13:10:09;9.35;;;7.50;;
25155;SDS011;21913;52.456;13.634;2023-05-10T13:15:11;8.35;;;7.15;;
25155;SDS011;21913;52.456;13.634;2023-05-10T13:20:12;9.00;;;7.15;;
25155;SDS011;21913;52.456;13.634;2023-05-10T13:25:14;10.38;;;7.57;;
25155;SDS011;21913;52.456;13.634;2023-05-10T13:30:15;10.10;;;7.10;;
25155;SDS011;21913;52.456;13.634;2023-05-10T13:35:17;10.50;;;7.28;;
25155;SDS011;21913;52.456;13.634;2023-05-10T13:40:19;11.35;;;7.43;;
25155;SDS011;21913;52.456;13.634;2023-05-10T13:45:20;9.48;;;7.15;;
25155;SDS011;21913;52.456;13.634;2023-05-10T13:50:22;10.57;;;7.18;;
25155;SDS011;21913;52.456;13.634;2023-05-10T13:55:23;8.40;;;6.88;;
25155;SDS011;21913;52.456;13.634;2023-05-10T14:00:24;8.07;;;6.43;;
25155;SDS011;21913;52.456;13.634;2023-05-10T14:05:26;9.60;;;6.30;;
25155;SDS011;21913;52.456;13.634;2023-05-10T14:10:28;8.10;;;6.35;;
25155;SDS011;21913;52.456;13.634;2023-05-10T14:15:29;8.57;;;6.50;;
25155;SDS011;21913;52.456;13.634;2023-05-10T14:20:31;11.05;;;8.00;;
25155;SDS011;21913;52.456;13.634;2023-05-10T14:25:32;11.13;;;8.15;;
25155;SDS011;21913;52.456;13.634;2023-05-10T14:30:34;10.57;;;8.13;;
25155;SDS011;21913;52.456;13.634;2023-05-10T14:35:35;11.20;;;8.25;;
25155;SDS011;21913;52.456;13.634;2023-05-10T14:40:37;12.57;;;8.30;;
25155;SDS011;21913;52.456;13.634;2023-05-10T14:45:38;11.40;;;7.95;;
25155;SDS011;21913;52.456;13.634;2023-05-10T14:50:40;9.60;;;7.45;;
25155;SDS011;21913;52.456;13.634;2023-05-10T14:55:42;9.93;;;7.28;;
25155;SDS011;21913;52.456;13.634;2023-05-10T15:00:43;9.52;;;7.20;;
25155;SDS011;21913;52.456;13.634;2023-05-10T15:05:44;8.95;;;6.85;;
25155;SDS011;21913;52.456;13.634;2023-05-10T15:10:46;13.80;;;7.55;;
25155;SDS011;21913;52.456;13.634;2023-05-10T15:15:47;8.98;;;7.15;;
25155;SDS011;21913;52.456;13.634;2023-05-10T15:20:49;10.00;;;7.43;;
25155;SDS011;21913;52.456;13.634;2023-05-10T15:25:50;9.85;;;7.10;;
25155;SDS011;21913;52.456;13.634;2023-05-10T15:30:52;8.25;;;6.75;;
25155;SDS011;21913;52.456;13.634;2023-05-10T15:35:53;10.02;;;6.72;;
25155;SDS011;21913;52.456;13.634;2023-05-10T15:40:56;9.15;;;6.60;;
25155;SDS011;21913;52.456;13.634;2023-05-10T15:45:58;9.45;;;6.85;;
25155;SDS011;21913;52.456;13.634;2023-05-10T15:50:59;7.70;;;6.50;;
25155;SDS011;21913;52.456;13.634;2023-05-10T15:56:00;7.82;;;6.07;;
25155;SDS011;21913;52.456;13.634;2023-05-10T16:01:02;7.95;;;6.32;;
25155;SDS011;21913;52.456;13.634;2023-05-10T16:06:04;7.22;;;5.93;;
25155;SDS011;21913;52.456;13.634;2023-05-10T16:11:06;7.70;;;5.90;;
25155;SDS011;21913;52.456;13.634;2023-05-10T16:16:07;7.65;;;5.90;;
25155;SDS011;21913;52.456;13.634;2023-05-10T16:21:09;8.18;;;6.07;;
25155;SDS011;21913;52.456;13.634;2023-05-10T16:26:11;8.80;;;6.30;;
25155;SDS011;21913;52.456;13.634;2023-05-10T16:31:12;9.48;;;5.82;;
25155;SDS011;21913;52.456;13.634;2023-05-10T16:36:14;6.72;;;5.80;;
25155;SDS011;21913;52.456;13.634;2023-05-10T16:41:18;7.85;;;5.85;;
25155;SDS011;21913;52.456;13.634;2023-05-10T16:46:20;7.32;;;5.78;;
25155;SDS011;21913;52.456;13.634;2023-05-10T16:51:21;7.13;;;5.80;;
25155;SDS011;21913;52.456;13.634;2023-05-10T16:56:23;6.40;;;5.40;;
25155;SDS011;21913;52.456;13.634;2023-05-10T17:01:24;6.60;;;5.70;;
25155;SDS011;21913;52.456;13.634;2023-05-10T17:06:26;7.28;;;5.25;;
25155;SDS011;21913;52.456;13.634;2023-05-10T17:11:28;6.82;;;5.53;;
25155;SDS011;21913;52.456;13.634;2023-05-10T17:16:29;6.85;;;5.47;;
25155;SDS011;21913;52.456;13.634;2023-05-10T17:21:31;7.68;;;5.50;;
25155;SDS011;21913;52.456;13.634;2023-05-10T17:26:32;6.70;;;5.60;;
25155;SDS011;21913;52.456;13.634;2023-05-10T17:31:33;10.05;;;5.63;;
25155;SDS011;21913;52.456;13.634;2023-05-10T17:36:35;6.50;;;5.65;;
25155;SDS011;21913;52.456;13.634;2023-05-10T17:41:36;6.57;;;5.38;;
25155;SDS011;21913;52.456;13.634;2023-05-10T17:46:38;6.47;;;5.45;;
25155;SDS011;21913;52.456;13.634;2023-05-10T17:51:39;6.22;;;5.22;;
25155;SDS011;21913;52.456;13.634;2023-05-10T17:56:41;7.38;;;5.20;;
25155;SDS011;21913;52.456;13.634;2023-05-10T18:01:42;7.40;;;5.28;;
25155;SDS011;21913;52.456;13.634;2023-05-10T18:06:44;6.18;;;5.20;;
25155;SDS011;21913;52.456;13.634;2023-05-10T18:11:45;6.68;;;5.40;;
25155;SDS011;21913;52.456;13.634;2023-05-10T18:16:47;6.35;;;5.10;;
25155;SDS011;21913;52.456;13.634;2023-05-10T18:21:49;6.18;;;5.25;;
25155;SDS011;21913;52.456;13.634;2023-05-10T18:26:51;6.68;;;4.63;;
25155;SDS011;21913;52.456;13.634;2023-05-10T18:31:53;7.57;;;5.38;;
25155;SDS011;21913;52.456;13.634;2023-05-10T18:36:54;6.32;;;5.07;;
25155;SDS011;21913;52.456;13.634;2023-05-10T18:41:55;6.13;;;4.80;;
25155;SDS011;21913;52.456;13.634;2023-05-10T18:46:57;6.28;;;5.10;;
25155;SDS011;21913;52.456;13.634;2023-05-10T18:51:58;10.88;;;6.93;;
25155;SDS011;21913;52.456;13.634;2023-05-10T18:57:00;9.18;;;6.82;;
25155;SDS011;21913;52.456;13.634;2023-05-10T19:02:01;10.23;;;6.50;;
25155;SDS011;21913;52.456;13.634;2023-05-10T19:07:03;7.57;;;5.93;;
25155;SDS011;21913;52.456;13.634;2023-05-10T19:12:04;9.77;;;6.32;;
25155;SDS011;21913;52.456;13.634;2023-05-10T19:17:06;9.63;;;6.13;;
25155;SDS011;21913;52.456;13.634;2023-05-10T19:22:10;8.68;;;5.97;;
25155;SDS011;21913;52.456;13.634;2023-05-10T19:27:11;12.07;;;6.53;;
25155;SDS011;21913;52.456;13.634;2023-05-10T19:32:13;8.07;;;6.10;;
25155;SDS011;21913;52.456;13.634;2023-05-10T19:37:15;9.35;;;5.70;;
25155;SDS011;21913;52.456;13.634;2023-05-10T19:42:16;7.68;;;5.90;;
25155;SDS011;21913;52.456;13.634;2023-05-10T19:47:21;7.00;;;5.50;;
25155;SDS011;21913;52.456;13.634;2023-05-10T19:52:22;10.82;;;5.88;;
25155;SDS011;21913;52.456;13.634;2023-05-10T19:57:24;11.65;;;5.65;;
25155;SDS011;21913;52.456;13.634;2023-05-10T20:02:25;7.95;;;5.47;;
25155;SDS011;21913;52.456;13.634;2023-05-10T20:07:27;7.40;;;5.47;;
25155;SDS011;21913;52.456;13.634;2023-05-10T20:12:28;7.10;;;5.35;;
25155;SDS011;21913;52.456;13.634;2023-05-10T20:17:30;6.95;;;5.15;;
25155;SDS011;21913;52.456;13.634;2023-05-10T20:22:31;7.13;;;5.20;;
25155;SDS011;21913;52.456;13.634;2023-05-10T20:27:33;6.32;;;4.82;;
25155;SDS011;21913;52.456;13.634;2023-05-10T20:32:35;7.22;;;4.90;;
25155;SDS011;21913;52.456;13.634;2023-05-10T20:37:37;6.32;;;5.00;;
25155;SDS011;21913;52.456;13.634;2023-05-10T20:42:40;5.82;;;4.80;;
25155;SDS011;21913;52.456;13.634;2023-05-10T20:47:41;6.55;;;4.85;;
25155;SDS011;21913;52.456;13.634;2023-05-10T20:52:43;6.53;;;5.13;;
25155;SDS011;21913;52.456;13.634;2023-05-10T20:57:44;6.50;;;4.63;;
25155;SDS011;21913;52.456;13.634;2023-05-10T21:02:46;6.43;;;4.68;;
25155;SDS011;21913;52.456;13.634;2023-05-10T21:07:47;7.43;;;5.10;;
25155;SDS011;21913;52.456;13.634;2023-05-10T21:12:49;6.30;;;4.60;;
25155;SDS011;21913;52.456;13.634;2023-05-10T21:17:50;5.55;;;4.35;;
25155;SDS011;21913;52.456;13.634;2023-05-10T21:22:52;5.43;;;4.50;;
25155;SDS011;21913;52.456;13.634;2023-05-10T21:27:53;5.88;;;4.43;;
25155;SDS011;21913;52.456;13.634;2023-05-10T21:32:55;5.45;;;4.22;;
25155;SDS011;21913;52.456;13.634;2023-05-10T21:37:56;5.75;;;4.35;;
25155;SDS011;21913;52.456;13.634;2023-05-10T21:42:58;5.47;;;4.50;;
25155;SDS011;21913;52.456;13.634;2023-05-10T21:47:59;5.80;;;4.40;;
25155;SDS011;21913;52.456;13.634;2023-05-10T21:53:01;5.03;;;4.07;;
25155;SDS011;21913;52.456;13.634;2023-05-10T21:58:03;6.60;;;4.22;;
25155;SDS011;21913;52.456;13.634;2023-05-10T22:03:04;5.93;;;4.20;;
25155;SDS011;21913;52.456;13.634;2023-05-10T22:08:06;7.10;;;4.65;;
25155;SDS011;21913;52.456;13.634;2023-05-10T22:13:07;6.35;;;4.28;;
25155;SDS011;21913;52.456;13.634;2023-05-10T22:18:09;5.55;;;4.30;;
25155;SDS011;21913;52.456;13.634;2023-05-10T22:23:10;5.03;;;4.00;;
25155;SDS011;21913;52.456;13.634;2023-05-10T22:28:12;5.72;;;4.20;;
25155;SDS011;21913;52.456;13.634;2023-05-10T22:33:14;5.88;;;4.20;;
25155;SDS011;21913;52.456;13.634;2023-05-10T22:38:15;5.18;;;3.88;;
25155;SDS011;21913;52.456;13.634;2023-05-10T22:43:17;5.80;;;3.97;;
25155;SDS011;21913;52.456;13.634;2023-05-10T22:48:18;4.72;;;4.00;;
25155;SDS011;21913;52.456;13.634;2023-05-10T22:53:19;6.70;;;3.95;;
25155;SDS011;21913;52.456;13.634;2023-05-10T22:58:21;4.80;;;3.80;;
25155;SDS011;21913;52.456;13.634;2023-05-10T23:03:23;5.45;;;4.20;;
25155;SDS011;21913;52.456;13.634;2023-05-10T23:08:25;5.05;;;3.70;;
25155;SDS011;21913;52.456;13.634;2023-05-10T23:13:26;5.05;;;3.67;;
25155;SDS011;21913;52.456;13.634;2023-05-10T23:18:28;4.82;;;3.97;;
25155;SDS011;21913;52.456;13.634;2023-05-10T23:23:29;4.70;;;3.45;;
25155;SDS011;21913;52.456;13.634;2023-05-10T23:28:31;4.65;;;3.40;;
25155;SDS011;21913;52.456;13.634;2023-05-10T23:33:32;4.82;;;3.90;;
25155;SDS011;21913;52.456;13.634;2023-05-10T23:38:34;4.75;;;3.85;;
25155;SDS011;21913;52.456;13.634;2023-05-10T23:43:35;4.47;;;3.58;;
25155;SDS011;21913;52.456;13.634;2023-05-10T23:48:37;4.07;;;3.50;;
25155;SDS011;21913;52.456;13.634;2023-05-10T23:53:38;6.32;;;3.35;;
25155;SDS011;21913;52.456;13.634;2023-05-10T23:58:40;4.57;;;3.80;;
